sensor_id;sensor_type;location;lat;lon;timestamp;P1;durP1;ratioP1;P2;durP2;ratioP2
76814;SDS011;65768;49.906;19.384;2023-09-18T00:00:51;7.70;;;5.20;;
76814;SDS011;65768;49.906;19.384;2023-09-18T00:03:39;9.80;;;5.50;;
76814;SDS011;65768;49.906;19.384;2023-09-18T00:06:07;7.80;;;5.70;;
76814;SDS011;65768;49.906;19.384;2023-09-18T00:08:37;10.00;;;6.00;;
76814;SDS011;65768;49.906;19.384;2023-09-18T00:11:07;10.30;;;6.90;;
76814;SDS011;65768;49.906;19.384;2023-09-18T00:13:35;9.60;;;6.90;;
76814;SDS011;65768;49.906;19.384;2023-09-18T00:16:03;8.90;;;6.90;;
76814;SDS011;65768;49.906;19.384;2023-09-18T00:18:31;10.50;;;6.60;;
76814;SDS011;65768;49.906;19.384;2023-09-18T00:21:00;11.20;;;7.70;;
76814;SDS011;65768;49.906;19.384;2023-09-18T00:23:28;9.50;;;6.30;;
76814;SDS011;65768;49.906;19.384;2023-09-18T00:25:56;9.20;;;6.60;;
76814;SDS011;65768;49.906;19.384;2023-09-18T00:28:24;10.70;;;7.90;;
76814;SDS011;65768;49.906;19.384;2023-09-18T00:30:52;11.60;;;7.40;;
76814;SDS011;65768;49.906;19.384;2023-09-18T00:33:20;12.10;;;8.00;;
76814;SDS011;65768;49.906;19.384;2023-09-18T00:35:49;11.70;;;7.70;;
76814;SDS011;65768;49.906;19.384;2023-09-18T00:38:18;10.30;;;7.10;;
76814;SDS011;65768;49.906;19.384;2023-09-18T00:40:47;11.90;;;8.00;;
76814;SDS011;65768;49.906;19.384;2023-09-18T00:43:15;12.30;;;7.90;;
76814;SDS011;65768;49.906;19.384;2023-09-18T00:45:44;12.40;;;7.80;;
76814;SDS011;65768;49.906;19.384;2023-09-18T00:48:16;10.60;;;7.70;;
76814;SDS011;65768;49.906;19.384;2023-09-18T00:50:45;12.70;;;8.40;;
76814;SDS011;65768;49.906;19.384;2023-09-18T00:53:15;11.40;;;8.00;;
76814;SDS011;65768;49.906;19.384;2023-09-18T00:55:47;10.90;;;7.10;;
76814;SDS011;65768;49.906;19.384;2023-09-18T00:58:18;13.60;;;8.70;;
76814;SDS011;65768;49.906;19.384;2023-09-18T01:00:46;12.20;;;9.20;;
76814;SDS011;65768;49.906;19.384;2023-09-18T01:03:14;12.40;;;9.00;;
76814;SDS011;65768;49.906;19.384;2023-09-18T01:05:47;12.10;;;8.60;;
76814;SDS011;65768;49.906;19.384;2023-09-18T01:08:15;12.00;;;9.50;;
76814;SDS011;65768;49.906;19.384;2023-09-18T01:11:04;13.40;;;9.90;;
76814;SDS011;65768;49.906;19.384;2023-09-18T01:13:41;16.60;;;10.40;;
76814;SDS011;65768;49.906;19.384;2023-09-18T01:16:59;14.20;;;9.60;;
76814;SDS011;65768;49.906;19.384;2023-09-18T01:19:13;13.20;;;8.80;;
76814;SDS011;65768;49.906;19.384;2023-09-18T01:21:41;13.50;;;8.90;;
76814;SDS011;65768;49.906;19.384;2023-09-18T01:24:09;12.40;;;9.00;;
76814;SDS011;65768;49.906;19.384;2023-09-18T01:26:37;16.00;;;11.00;;
76814;SDS011;65768;49.906;19.384;2023-09-18T01:29:05;18.10;;;11.10;;
76814;SDS011;65768;49.906;19.384;2023-09-18T01:31:33;13.80;;;9.50;;
76814;SDS011;65768;49.906;19.384;2023-09-18T01:34:01;12.90;;;9.30;;
76814;SDS011;65768;49.906;19.384;2023-09-18T01:36:30;17.00;;;10.20;;
76814;SDS011;65768;49.906;19.384;2023-09-18T01:38:58;12.80;;;8.80;;
76814;SDS011;65768;49.906;19.384;2023-09-18T01:41:27;13.60;;;9.60;;
76814;SDS011;65768;49.906;19.384;2023-09-18T01:43:55;16.40;;;10.40;;
76814;SDS011;65768;49.906;19.384;2023-09-18T01:46:23;14.80;;;9.70;;
76814;SDS011;65768;49.906;19.384;2023-09-18T01:48:52;17.20;;;10.80;;
76814;SDS011;65768;49.906;19.384;2023-09-18T01:51:20;14.60;;;10.40;;
76814;SDS011;65768;49.906;19.384;2023-09-18T01:53:48;16.00;;;10.60;;
76814;SDS011;65768;49.906;19.384;2023-09-18T01:56:16;17.70;;;11.30;;
76814;SDS011;65768;49.906;19.384;2023-09-18T01:58:44;17.30;;;11.30;;
76814;SDS011;65768;49.906;19.384;2023-09-18T02:01:13;17.30;;;11.50;;
76814;SDS011;65768;49.906;19.384;2023-09-18T02:03:41;16.10;;;10.70;;
76814;SDS011;65768;49.906;19.384;2023-09-18T02:06:09;16.00;;;11.10;;
76814;SDS011;65768;49.906;19.384;2023-09-18T02:08:37;15.30;;;10.10;;
76814;SDS011;65768;49.906;19.384;2023-09-18T02:11:05;17.70;;;11.30;;
76814;SDS011;65768;49.906;19.384;2023-09-18T02:13:33;16.90;;;11.90;;
76814;SDS011;65768;49.906;19.384;2023-09-18T02:16:01;17.10;;;11.50;;
76814;SDS011;65768;49.906;19.384;2023-09-18T02:18:31;15.00;;;10.50;;
76814;SDS011;65768;49.906;19.384;2023-09-18T02:20:59;15.80;;;11.40;;
76814;SDS011;65768;49.906;19.384;2023-09-18T02:23:27;14.00;;;9.60;;
76814;SDS011;65768;49.906;19.384;2023-09-18T02:25:55;16.10;;;9.80;;
76814;SDS011;65768;49.906;19.384;2023-09-18T02:28:26;18.40;;;11.50;;
76814;SDS011;65768;49.906;19.384;2023-09-18T02:30:55;14.70;;;10.50;;
76814;SDS011;65768;49.906;19.384;2023-09-18T02:33:23;14.50;;;11.00;;
76814;SDS011;65768;49.906;19.384;2023-09-18T02:35:51;18.10;;;11.50;;
76814;SDS011;65768;49.906;19.384;2023-09-18T02:38:19;16.90;;;11.20;;
76814;SDS011;65768;49.906;19.384;2023-09-18T02:40:47;15.20;;;10.90;;
76814;SDS011;65768;49.906;19.384;2023-09-18T02:43:15;16.20;;;10.80;;
76814;SDS011;65768;49.906;19.384;2023-09-18T02:45:43;17.00;;;11.20;;
76814;SDS011;65768;49.906;19.384;2023-09-18T02:48:12;15.40;;;10.10;;
76814;SDS011;65768;49.906;19.384;2023-09-18T02:50:40;16.50;;;11.10;;
76814;SDS011;65768;49.906;19.384;2023-09-18T02:53:12;19.80;;;12.90;;
76814;SDS011;65768;49.906;19.384;2023-09-18T02:55:51;16.20;;;10.70;;
76814;SDS011;65768;49.906;19.384;2023-09-18T02:58:20;15.20;;;9.90;;
76814;SDS011;65768;49.906;19.384;2023-09-18T03:00:50;17.00;;;11.20;;
76814;SDS011;65768;49.906;19.384;2023-09-18T03:03:18;12.90;;;9.80;;
76814;SDS011;65768;49.906;19.384;2023-09-18T03:05:46;15.00;;;9.60;;
76814;SDS011;65768;49.906;19.384;2023-09-18T03:08:14;14.50;;;9.80;;
76814;SDS011;65768;49.906;19.384;2023-09-18T03:10:44;15.00;;;10.00;;
76814;SDS011;65768;49.906;19.384;2023-09-18T03:13:13;16.10;;;9.90;;
76814;SDS011;65768;49.906;19.384;2023-09-18T03:15:44;13.30;;;10.00;;
76814;SDS011;65768;49.906;19.384;2023-09-18T03:18:14;16.00;;;10.30;;
76814;SDS011;65768;49.906;19.384;2023-09-18T03:20:42;14.30;;;10.50;;
76814;SDS011;65768;49.906;19.384;2023-09-18T03:23:11;19.00;;;11.10;;
76814;SDS011;65768;49.906;19.384;2023-09-18T03:25:39;15.00;;;10.20;;
76814;SDS011;65768;49.906;19.384;2023-09-18T03:28:07;22.20;;;13.50;;
76814;SDS011;65768;49.906;19.384;2023-09-18T03:30:35;20.10;;;13.20;;
76814;SDS011;65768;49.906;19.384;2023-09-18T03:33:04;20.40;;;13.30;;
76814;SDS011;65768;49.906;19.384;2023-09-18T03:35:32;19.70;;;12.50;;
76814;SDS011;65768;49.906;19.384;2023-09-18T03:38:14;21.10;;;14.70;;
76814;SDS011;65768;49.906;19.384;2023-09-18T03:40:42;20.20;;;12.60;;
76814;SDS011;65768;49.906;19.384;2023-09-18T03:43:11;15.10;;;11.70;;
76814;SDS011;65768;49.906;19.384;2023-09-18T03:45:42;21.90;;;12.80;;
76814;SDS011;65768;49.906;19.384;2023-09-18T03:48:10;22.10;;;15.80;;
76814;SDS011;65768;49.906;19.384;2023-09-18T03:50:38;21.50;;;13.30;;
76814;SDS011;65768;49.906;19.384;2023-09-18T03:53:07;16.40;;;11.50;;
76814;SDS011;65768;49.906;19.384;2023-09-18T03:55:35;17.60;;;11.90;;
76814;SDS011;65768;49.906;19.384;2023-09-18T03:58:04;18.90;;;11.10;;
76814;SDS011;65768;49.906;19.384;2023-09-18T04:00:32;16.70;;;11.80;;
76814;SDS011;65768;49.906;19.384;2023-09-18T04:03:01;16.20;;;11.30;;
76814;SDS011;65768;49.906;19.384;2023-09-18T04:05:29;16.00;;;11.00;;
76814;SDS011;65768;49.906;19.384;2023-09-18T04:07:57;18.80;;;11.60;;
76814;SDS011;65768;49.906;19.384;2023-09-18T04:10:25;15.40;;;10.10;;
76814;SDS011;65768;49.906;19.384;2023-09-18T04:12:54;14.30;;;10.20;;
76814;SDS011;65768;49.906;19.384;2023-09-18T04:15:22;15.20;;;9.80;;
76814;SDS011;65768;49.906;19.384;2023-09-18T04:17:50;16.40;;;10.40;;
76814;SDS011;65768;49.906;19.384;2023-09-18T04:20:18;15.10;;;10.20;;
76814;SDS011;65768;49.906;19.384;2023-09-18T04:22:47;16.10;;;11.00;;
76814;SDS011;65768;49.906;19.384;2023-09-18T04:25:18;15.30;;;11.20;;
76814;SDS011;65768;49.906;19.384;2023-09-18T04:27:47;15.10;;;10.30;;
76814;SDS011;65768;49.906;19.384;2023-09-18T04:30:18;15.90;;;11.40;;
76814;SDS011;65768;49.906;19.384;2023-09-18T04:32:47;15.90;;;11.50;;
76814;SDS011;65768;49.906;19.384;2023-09-18T04:35:15;15.50;;;10.80;;
76814;SDS011;65768;49.906;19.384;2023-09-18T04:37:43;20.80;;;13.10;;
76814;SDS011;65768;49.906;19.384;2023-09-18T04:40:11;19.40;;;11.30;;
76814;SDS011;65768;49.906;19.384;2023-09-18T04:42:39;14.40;;;10.90;;
76814;SDS011;65768;49.906;19.384;2023-09-18T04:45:08;15.50;;;9.40;;
76814;SDS011;65768;49.906;19.384;2023-09-18T04:47:36;16.90;;;11.30;;
76814;SDS011;65768;49.906;19.384;2023-09-18T04:50:04;17.00;;;11.60;;
76814;SDS011;65768;49.906;19.384;2023-09-18T04:52:37;17.30;;;11.90;;
76814;SDS011;65768;49.906;19.384;2023-09-18T04:55:05;18.40;;;11.10;;
76814;SDS011;65768;49.906;19.384;2023-09-18T04:57:34;16.00;;;11.20;;
76814;SDS011;65768;49.906;19.384;2023-09-18T05:00:03;18.50;;;11.60;;
76814;SDS011;65768;49.906;19.384;2023-09-18T05:02:36;16.70;;;10.70;;
76814;SDS011;65768;49.906;19.384;2023-09-18T05:05:04;18.90;;;11.20;;
76814;SDS011;65768;49.906;19.384;2023-09-18T05:07:32;16.80;;;12.00;;
76814;SDS011;65768;49.906;19.384;2023-09-18T05:10:00;14.90;;;10.90;;
76814;SDS011;65768;49.906;19.384;2023-09-18T05:12:29;14.30;;;10.00;;
76814;SDS011;65768;49.906;19.384;2023-09-18T05:14:57;16.70;;;10.80;;
76814;SDS011;65768;49.906;19.384;2023-09-18T05:17:42;17.50;;;11.30;;
76814;SDS011;65768;49.906;19.384;2023-09-18T05:20:12;16.80;;;9.90;;
76814;SDS011;65768;49.906;19.384;2023-09-18T05:22:42;18.40;;;11.60;;
76814;SDS011;65768;49.906;19.384;2023-09-18T05:25:11;16.00;;;10.50;;
76814;SDS011;65768;49.906;19.384;2023-09-18T05:27:40;13.90;;;10.10;;
76814;SDS011;65768;49.906;19.384;2023-09-18T05:30:15;14.20;;;9.70;;
76814;SDS011;65768;49.906;19.384;2023-09-18T05:32:48;14.70;;;10.60;;
76814;SDS011;65768;49.906;19.384;2023-09-18T05:35:16;13.30;;;9.90;;
76814;SDS011;65768;49.906;19.384;2023-09-18T05:37:45;23.70;;;12.00;;
76814;SDS011;65768;49.906;19.384;2023-09-18T05:40:13;26.50;;;11.70;;
76814;SDS011;65768;49.906;19.384;2023-09-18T05:42:42;17.70;;;10.90;;
76814;SDS011;65768;49.906;19.384;2023-09-18T05:45:14;14.00;;;10.20;;
76814;SDS011;65768;49.906;19.384;2023-09-18T05:47:42;14.50;;;10.70;;
76814;SDS011;65768;49.906;19.384;2023-09-18T05:50:11;15.50;;;10.30;;
76814;SDS011;65768;49.906;19.384;2023-09-18T05:52:44;14.10;;;10.20;;
76814;SDS011;65768;49.906;19.384;2023-09-18T05:55:14;13.50;;;10.10;;
76814;SDS011;65768;49.906;19.384;2023-09-18T05:57:42;14.70;;;9.80;;
76814;SDS011;65768;49.906;19.384;2023-09-18T06:00:11;12.80;;;10.00;;
76814;SDS011;65768;49.906;19.384;2023-09-18T06:02:45;14.20;;;9.40;;
76814;SDS011;65768;49.906;19.384;2023-09-18T06:05:14;15.90;;;10.40;;
76814;SDS011;65768;49.906;19.384;2023-09-18T06:07:43;13.60;;;9.70;;
76814;SDS011;65768;49.906;19.384;2023-09-18T06:10:14;16.20;;;9.80;;
76814;SDS011;65768;49.906;19.384;2023-09-18T06:12:43;13.20;;;8.80;;
76814;SDS011;65768;49.906;19.384;2023-09-18T06:15:13;13.00;;;9.40;;
76814;SDS011;65768;49.906;19.384;2023-09-18T06:17:42;11.00;;;9.00;;
76814;SDS011;65768;49.906;19.384;2023-09-18T06:20:11;13.90;;;9.80;;
76814;SDS011;65768;49.906;19.384;2023-09-18T06:22:43;13.50;;;9.70;;
76814;SDS011;65768;49.906;19.384;2023-09-18T06:25:11;16.30;;;10.20;;
76814;SDS011;65768;49.906;19.384;2023-09-18T06:27:41;10.20;;;8.20;;
76814;SDS011;65768;49.906;19.384;2023-09-18T06:30:10;11.80;;;8.60;;
76814;SDS011;65768;49.906;19.384;2023-09-18T06:32:38;12.30;;;8.50;;
76814;SDS011;65768;49.906;19.384;2023-09-18T06:35:08;13.30;;;9.70;;
76814;SDS011;65768;49.906;19.384;2023-09-18T06:37:36;11.60;;;8.10;;
76814;SDS011;65768;49.906;19.384;2023-09-18T06:40:04;11.20;;;8.40;;
76814;SDS011;65768;49.906;19.384;2023-09-18T06:42:33;12.70;;;8.60;;
76814;SDS011;65768;49.906;19.384;2023-09-18T06:45:01;13.90;;;8.80;;
76814;SDS011;65768;49.906;19.384;2023-09-18T06:47:29;12.60;;;8.80;;
76814;SDS011;65768;49.906;19.384;2023-09-18T06:49:57;13.00;;;8.90;;
76814;SDS011;65768;49.906;19.384;2023-09-18T06:52:25;14.00;;;9.30;;
76814;SDS011;65768;49.906;19.384;2023-09-18T06:54:55;12.70;;;8.10;;
76814;SDS011;65768;49.906;19.384;2023-09-18T06:57:25;12.90;;;8.10;;
76814;SDS011;65768;49.906;19.384;2023-09-18T06:59:53;12.60;;;8.90;;
76814;SDS011;65768;49.906;19.384;2023-09-18T07:02:22;11.40;;;8.20;;
76814;SDS011;65768;49.906;19.384;2023-09-18T07:04:50;11.30;;;8.80;;
76814;SDS011;65768;49.906;19.384;2023-09-18T07:07:18;10.70;;;8.20;;
76814;SDS011;65768;49.906;19.384;2023-09-18T07:09:52;12.30;;;8.30;;
76814;SDS011;65768;49.906;19.384;2023-09-18T07:12:21;10.80;;;7.80;;
76814;SDS011;65768;49.906;19.384;2023-09-18T07:14:50;10.80;;;8.20;;
76814;SDS011;65768;49.906;19.384;2023-09-18T07:17:18;10.70;;;7.80;;
76814;SDS011;65768;49.906;19.384;2023-09-18T07:19:47;12.00;;;9.20;;
76814;SDS011;65768;49.906;19.384;2023-09-18T07:22:15;11.20;;;8.20;;
76814;SDS011;65768;49.906;19.384;2023-09-18T07:24:43;13.10;;;8.90;;
76814;SDS011;65768;49.906;19.384;2023-09-18T07:27:13;10.50;;;7.90;;
76814;SDS011;65768;49.906;19.384;2023-09-18T07:29:41;11.30;;;8.50;;
76814;SDS011;65768;49.906;19.384;2023-09-18T07:32:09;12.00;;;7.90;;
76814;SDS011;65768;49.906;19.384;2023-09-18T07:34:37;12.50;;;8.50;;
76814;SDS011;65768;49.906;19.384;2023-09-18T07:37:05;10.80;;;7.90;;
76814;SDS011;65768;49.906;19.384;2023-09-18T07:39:33;12.70;;;8.90;;
76814;SDS011;65768;49.906;19.384;2023-09-18T07:42:02;12.00;;;8.50;;
76814;SDS011;65768;49.906;19.384;2023-09-18T07:44:31;12.90;;;8.60;;
76814;SDS011;65768;49.906;19.384;2023-09-18T07:47:00;10.80;;;8.30;;
76814;SDS011;65768;49.906;19.384;2023-09-18T07:49:29;13.20;;;8.80;;
76814;SDS011;65768;49.906;19.384;2023-09-18T07:51:57;11.00;;;8.40;;
76814;SDS011;65768;49.906;19.384;2023-09-18T07:54:25;9.70;;;8.00;;
76814;SDS011;65768;49.906;19.384;2023-09-18T07:56:53;11.90;;;8.20;;
76814;SDS011;65768;49.906;19.384;2023-09-18T07:59:21;13.40;;;8.10;;
76814;SDS011;65768;49.906;19.384;2023-09-18T08:01:53;11.40;;;8.30;;
76814;SDS011;65768;49.906;19.384;2023-09-18T08:04:22;10.80;;;8.20;;
76814;SDS011;65768;49.906;19.384;2023-09-18T08:06:50;12.30;;;8.40;;
76814;SDS011;65768;49.906;19.384;2023-09-18T08:09:18;11.90;;;9.00;;
76814;SDS011;65768;49.906;19.384;2023-09-18T08:11:46;10.70;;;9.00;;
76814;SDS011;65768;49.906;19.384;2023-09-18T08:14:14;11.10;;;8.70;;
76814;SDS011;65768;49.906;19.384;2023-09-18T08:16:42;10.10;;;8.00;;
76814;SDS011;65768;49.906;19.384;2023-09-18T08:19:10;12.20;;;8.70;;
76814;SDS011;65768;49.906;19.384;2023-09-18T08:21:40;11.10;;;8.60;;
76814;SDS011;65768;49.906;19.384;2023-09-18T08:24:08;10.30;;;8.30;;
76814;SDS011;65768;49.906;19.384;2023-09-18T08:26:36;10.80;;;8.70;;
76814;SDS011;65768;49.906;19.384;2023-09-18T08:29:04;11.30;;;9.40;;
76814;SDS011;65768;49.906;19.384;2023-09-18T08:31:32;11.20;;;8.30;;
76814;SDS011;65768;49.906;19.384;2023-09-18T08:34:00;9.40;;;7.70;;
76814;SDS011;65768;49.906;19.384;2023-09-18T08:36:28;13.50;;;8.80;;
76814;SDS011;65768;49.906;19.384;2023-09-18T08:38:58;9.60;;;7.80;;
76814;SDS011;65768;49.906;19.384;2023-09-18T08:41:28;10.70;;;8.40;;
76814;SDS011;65768;49.906;19.384;2023-09-18T08:44:01;13.10;;;9.20;;
76814;SDS011;65768;49.906;19.384;2023-09-18T08:46:31;12.20;;;8.50;;
76814;SDS011;65768;49.906;19.384;2023-09-18T08:49:03;11.50;;;8.30;;
76814;SDS011;65768;49.906;19.384;2023-09-18T08:51:32;10.20;;;7.90;;
76814;SDS011;65768;49.906;19.384;2023-09-18T08:54:03;8.90;;;7.00;;
76814;SDS011;65768;49.906;19.384;2023-09-18T08:56:33;9.30;;;7.30;;
76814;SDS011;65768;49.906;19.384;2023-09-18T08:59:02;10.20;;;8.00;;
76814;SDS011;65768;49.906;19.384;2023-09-18T09:01:30;8.40;;;6.70;;
76814;SDS011;65768;49.906;19.384;2023-09-18T09:03:59;9.40;;;7.70;;
76814;SDS011;65768;49.906;19.384;2023-09-18T09:06:28;9.90;;;7.50;;
76814;SDS011;65768;49.906;19.384;2023-09-18T09:08:56;11.00;;;7.50;;
76814;SDS011;65768;49.906;19.384;2023-09-18T09:11:25;9.70;;;7.70;;
76814;SDS011;65768;49.906;19.384;2023-09-18T09:14:12;8.80;;;6.70;;
76814;SDS011;65768;49.906;19.384;2023-09-18T09:16:48;8.80;;;6.10;;
76814;SDS011;65768;49.906;19.384;2023-09-18T09:19:18;7.40;;;5.80;;
76814;SDS011;65768;49.906;19.384;2023-09-18T09:21:58;8.40;;;6.70;;
76814;SDS011;65768;49.906;19.384;2023-09-18T09:27:23;8.70;;;6.70;;
76814;SDS011;65768;49.906;19.384;2023-09-18T09:30:01;7.50;;;6.40;;
76814;SDS011;65768;49.906;19.384;2023-09-18T09:32:31;7.90;;;6.40;;
76814;SDS011;65768;49.906;19.384;2023-09-18T09:35:00;7.30;;;6.00;;
76814;SDS011;65768;49.906;19.384;2023-09-18T09:37:31;9.10;;;6.60;;
76814;SDS011;65768;49.906;19.384;2023-09-18T09:40:02;7.40;;;5.70;;
76814;SDS011;65768;49.906;19.384;2023-09-18T09:42:39;7.30;;;5.80;;
76814;SDS011;65768;49.906;19.384;2023-09-18T09:45:12;8.80;;;6.50;;
76814;SDS011;65768;49.906;19.384;2023-09-18T09:47:45;10.80;;;6.40;;
76814;SDS011;65768;49.906;19.384;2023-09-18T09:50:14;7.50;;;6.50;;
76814;SDS011;65768;49.906;19.384;2023-09-18T09:52:46;9.60;;;6.20;;
76814;SDS011;65768;49.906;19.384;2023-09-18T09:55:20;9.70;;;6.60;;
76814;SDS011;65768;49.906;19.384;2023-09-18T09:58:05;8.30;;;7.20;;
76814;SDS011;65768;49.906;19.384;2023-09-18T10:03:17;9.80;;;6.80;;
76814;SDS011;65768;49.906;19.384;2023-09-18T10:05:47;7.90;;;6.00;;
76814;SDS011;65768;49.906;19.384;2023-09-18T10:08:22;7.90;;;6.20;;
76814;SDS011;65768;49.906;19.384;2023-09-18T10:10:55;10.80;;;6.30;;
76814;SDS011;65768;49.906;19.384;2023-09-18T10:13:27;7.80;;;5.70;;
76814;SDS011;65768;49.906;19.384;2023-09-18T10:16:00;8.20;;;6.80;;
76814;SDS011;65768;49.906;19.384;2023-09-18T10:18:36;9.40;;;6.10;;
76814;SDS011;65768;49.906;19.384;2023-09-18T10:26:57;6.50;;;5.40;;
76814;SDS011;65768;49.906;19.384;2023-09-18T10:29:26;6.90;;;5.90;;
76814;SDS011;65768;49.906;19.384;2023-09-18T10:31:57;7.20;;;5.70;;
76814;SDS011;65768;49.906;19.384;2023-09-18T10:34:26;8.80;;;6.00;;
76814;SDS011;65768;49.906;19.384;2023-09-18T10:36:57;7.30;;;5.70;;
76814;SDS011;65768;49.906;19.384;2023-09-18T10:39:28;8.80;;;5.70;;
76814;SDS011;65768;49.906;19.384;2023-09-18T10:41:58;6.40;;;4.90;;
76814;SDS011;65768;49.906;19.384;2023-09-18T10:44:30;6.90;;;5.10;;
76814;SDS011;65768;49.906;19.384;2023-09-18T10:47:00;6.50;;;5.40;;
76814;SDS011;65768;49.906;19.384;2023-09-18T10:49:30;6.30;;;5.50;;
76814;SDS011;65768;49.906;19.384;2023-09-18T10:52:02;7.40;;;5.90;;
76814;SDS011;65768;49.906;19.384;2023-09-18T10:54:31;6.70;;;5.20;;
76814;SDS011;65768;49.906;19.384;2023-09-18T10:57:00;7.50;;;5.60;;
76814;SDS011;65768;49.906;19.384;2023-09-18T10:59:30;7.90;;;5.60;;
76814;SDS011;65768;49.906;19.384;2023-09-18T11:02:03;8.20;;;5.70;;
76814;SDS011;65768;49.906;19.384;2023-09-18T11:04:34;8.30;;;5.60;;
76814;SDS011;65768;49.906;19.384;2023-09-18T11:07:04;8.20;;;5.70;;
76814;SDS011;65768;49.906;19.384;2023-09-18T11:09:43;6.90;;;5.30;;
76814;SDS011;65768;49.906;19.384;2023-09-18T11:12:14;7.10;;;4.90;;
76814;SDS011;65768;49.906;19.384;2023-09-18T11:17:40;6.20;;;5.50;;
76814;SDS011;65768;49.906;19.384;2023-09-18T11:25:56;7.50;;;5.50;;
76814;SDS011;65768;49.906;19.384;2023-09-18T11:28:25;6.60;;;5.30;;
76814;SDS011;65768;49.906;19.384;2023-09-18T11:30:57;7.30;;;5.60;;
76814;SDS011;65768;49.906;19.384;2023-09-18T11:33:36;7.20;;;6.10;;
76814;SDS011;65768;49.906;19.384;2023-09-18T11:38:52;6.50;;;5.20;;
76814;SDS011;65768;49.906;19.384;2023-09-18T11:41:23;9.30;;;5.40;;
76814;SDS011;65768;49.906;19.384;2023-09-18T11:46:44;7.20;;;5.80;;
76814;SDS011;65768;49.906;19.384;2023-09-18T11:49:15;7.10;;;5.20;;
76814;SDS011;65768;49.906;19.384;2023-09-18T11:51:49;6.90;;;5.30;;
76814;SDS011;65768;49.906;19.384;2023-09-18T11:54:18;6.90;;;5.40;;
76814;SDS011;65768;49.906;19.384;2023-09-18T11:56:47;6.70;;;5.40;;
76814;SDS011;65768;49.906;19.384;2023-09-18T11:59:15;6.20;;;5.20;;
76814;SDS011;65768;49.906;19.384;2023-09-18T12:01:52;6.50;;;5.20;;
76814;SDS011;65768;49.906;19.384;2023-09-18T12:04:29;7.10;;;5.40;;
76814;SDS011;65768;49.906;19.384;2023-09-18T12:06:57;6.80;;;5.40;;
76814;SDS011;65768;49.906;19.384;2023-09-18T12:09:27;7.70;;;5.40;;
76814;SDS011;65768;49.906;19.384;2023-09-18T12:11:55;6.40;;;5.30;;
76814;SDS011;65768;49.906;19.384;2023-09-18T12:14:25;6.60;;;5.30;;
76814;SDS011;65768;49.906;19.384;2023-09-18T12:16:53;6.80;;;5.40;;
76814;SDS011;65768;49.906;19.384;2023-09-18T12:19:21;6.60;;;4.80;;
76814;SDS011;65768;49.906;19.384;2023-09-18T12:21:50;7.50;;;5.60;;
76814;SDS011;65768;49.906;19.384;2023-09-18T12:24:22;6.80;;;4.80;;
76814;SDS011;65768;49.906;19.384;2023-09-18T12:26:52;6.10;;;5.00;;
76814;SDS011;65768;49.906;19.384;2023-09-18T12:29:21;6.00;;;4.70;;
76814;SDS011;65768;49.906;19.384;2023-09-18T12:31:49;5.50;;;5.00;;
76814;SDS011;65768;49.906;19.384;2023-09-18T12:34:18;7.50;;;5.20;;
76814;SDS011;65768;49.906;19.384;2023-09-18T12:36:49;6.30;;;5.20;;
76814;SDS011;65768;49.906;19.384;2023-09-18T12:39:18;6.50;;;4.70;;
76814;SDS011;65768;49.906;19.384;2023-09-18T12:41:48;7.70;;;5.10;;
76814;SDS011;65768;49.906;19.384;2023-09-18T12:44:17;5.90;;;4.60;;
76814;SDS011;65768;49.906;19.384;2023-09-18T12:46:45;6.20;;;4.70;;
76814;SDS011;65768;49.906;19.384;2023-09-18T12:49:17;5.40;;;4.00;;
76814;SDS011;65768;49.906;19.384;2023-09-18T12:51:57;6.30;;;4.60;;
76814;SDS011;65768;49.906;19.384;2023-09-18T12:54:39;5.90;;;4.50;;
76814;SDS011;65768;49.906;19.384;2023-09-18T12:57:09;7.90;;;5.00;;
76814;SDS011;65768;49.906;19.384;2023-09-18T12:59:38;6.40;;;4.90;;
76814;SDS011;65768;49.906;19.384;2023-09-18T13:02:06;5.90;;;4.70;;
76814;SDS011;65768;49.906;19.384;2023-09-18T13:04:36;5.50;;;4.50;;
76814;SDS011;65768;49.906;19.384;2023-09-18T13:07:12;5.20;;;4.30;;
76814;SDS011;65768;49.906;19.384;2023-09-18T13:09:41;6.40;;;4.70;;
76814;SDS011;65768;49.906;19.384;2023-09-18T13:12:09;5.40;;;4.20;;
76814;SDS011;65768;49.906;19.384;2023-09-18T13:17:25;6.60;;;4.30;;
76814;SDS011;65768;49.906;19.384;2023-09-18T13:19:54;5.40;;;4.10;;
76814;SDS011;65768;49.906;19.384;2023-09-18T13:22:23;5.40;;;4.00;;
76814;SDS011;65768;49.906;19.384;2023-09-18T13:24:55;5.50;;;4.00;;
76814;SDS011;65768;49.906;19.384;2023-09-18T13:27:24;5.70;;;4.20;;
76814;SDS011;65768;49.906;19.384;2023-09-18T13:29:52;5.60;;;4.10;;
76814;SDS011;65768;49.906;19.384;2023-09-18T13:32:22;6.40;;;4.10;;
76814;SDS011;65768;49.906;19.384;2023-09-18T13:34:50;5.60;;;4.60;;
76814;SDS011;65768;49.906;19.384;2023-09-18T13:37:18;5.70;;;4.10;;
76814;SDS011;65768;49.906;19.384;2023-09-18T13:39:48;6.20;;;4.40;;
76814;SDS011;65768;49.906;19.384;2023-09-18T13:42:16;5.20;;;4.40;;
76814;SDS011;65768;49.906;19.384;2023-09-18T13:44:44;6.40;;;4.40;;
76814;SDS011;65768;49.906;19.384;2023-09-18T13:47:14;14.50;;;9.60;;
76814;SDS011;65768;49.906;19.384;2023-09-18T13:49:42;20.90;;;12.00;;
76814;SDS011;65768;49.906;19.384;2023-09-18T13:52:10;17.40;;;11.70;;
76814;SDS011;65768;49.906;19.384;2023-09-18T13:54:39;21.10;;;11.80;;
76814;SDS011;65768;49.906;19.384;2023-09-18T13:57:08;7.50;;;4.90;;
76814;SDS011;65768;49.906;19.384;2023-09-18T13:59:36;15.20;;;9.70;;
76814;SDS011;65768;49.906;19.384;2023-09-18T14:02:05;29.40;;;18.90;;
76814;SDS011;65768;49.906;19.384;2023-09-18T14:04:33;16.90;;;10.20;;
76814;SDS011;65768;49.906;19.384;2023-09-18T14:07:02;8.80;;;5.00;;
76814;SDS011;65768;49.906;19.384;2023-09-18T14:09:30;9.90;;;6.30;;
76814;SDS011;65768;49.906;19.384;2023-09-18T14:11:59;7.80;;;4.20;;
76814;SDS011;65768;49.906;19.384;2023-09-18T14:14:27;6.00;;;4.70;;
76814;SDS011;65768;49.906;19.384;2023-09-18T14:16:57;5.20;;;3.50;;
76814;SDS011;65768;49.906;19.384;2023-09-18T14:19:26;5.40;;;3.50;;
76814;SDS011;65768;49.906;19.384;2023-09-18T14:21:54;4.90;;;3.40;;
76814;SDS011;65768;49.906;19.384;2023-09-18T14:24:22;6.10;;;3.90;;
76814;SDS011;65768;49.906;19.384;2023-09-18T14:26:53;6.00;;;3.70;;
76814;SDS011;65768;49.906;19.384;2023-09-18T14:29:22;7.60;;;4.70;;
76814;SDS011;65768;49.906;19.384;2023-09-18T14:31:50;6.00;;;4.10;;
76814;SDS011;65768;49.906;19.384;2023-09-18T14:34:19;7.80;;;5.30;;
76814;SDS011;65768;49.906;19.384;2023-09-18T14:36:47;11.10;;;5.80;;
76814;SDS011;65768;49.906;19.384;2023-09-18T14:39:15;5.20;;;4.10;;
76814;SDS011;65768;49.906;19.384;2023-09-18T14:41:46;6.70;;;3.90;;
76814;SDS011;65768;49.906;19.384;2023-09-18T14:44:15;4.00;;;3.30;;
76814;SDS011;65768;49.906;19.384;2023-09-18T14:46:43;4.40;;;3.00;;
76814;SDS011;65768;49.906;19.384;2023-09-18T14:49:11;4.10;;;3.20;;
76814;SDS011;65768;49.906;19.384;2023-09-18T14:51:39;4.00;;;3.20;;
76814;SDS011;65768;49.906;19.384;2023-09-18T14:54:08;4.60;;;3.30;;
76814;SDS011;65768;49.906;19.384;2023-09-18T14:56:36;4.30;;;3.40;;
76814;SDS011;65768;49.906;19.384;2023-09-18T14:59:05;5.70;;;3.20;;
76814;SDS011;65768;49.906;19.384;2023-09-18T15:01:35;3.80;;;3.00;;
76814;SDS011;65768;49.906;19.384;2023-09-18T15:04:03;5.60;;;3.20;;
76814;SDS011;65768;49.906;19.384;2023-09-18T15:06:31;4.40;;;3.80;;